createdAt,value
2023-03-12T00:01:14.258Z,98747.03
2023-03-12T00:03:42.618Z,98747.31
2023-03-12T00:06:11.786Z,98741.06
2023-03-12T00:08:41.224Z,98756.19
2023-03-12T00:11:12.503Z,98751.16
2023-03-12T00:13:42.834Z,98752.97
2023-03-12T00:16:13.178Z,98752.50
2023-03-12T00:18:42.313Z,98753.75
2023-03-12T00:21:11.633Z,98752.84
2023-03-12T00:23:40.118Z,98753.81
2023-03-12T00:26:10.546Z,98764.69
2023-03-12T00:28:39.638Z,98754.75
2023-03-12T00:31:18.147Z,98756.19
2023-03-12T00:33:48.227Z,98759.69
2023-03-12T00:36:16.508Z,98759.59
2023-03-12T00:38:45.068Z,98755.31
2023-03-12T00:41:13.767Z,98753.28
2023-03-12T00:43:42.263Z,98748.69
2023-03-12T00:46:10.346Z,98752.16
2023-03-12T00:48:40.571Z,98747.84
2023-03-12T00:51:09.534Z,98751.16
2023-03-12T00:53:38.071Z,98737.50
2023-03-12T00:56:07.985Z,98741.91
2023-03-12T00:58:36.118Z,98739.72
2023-03-12T01:01:04.861Z,98734.41
2023-03-12T01:03:33.295Z,98736.53
2023-03-12T01:06:03.144Z,98731.59
2023-03-12T01:08:33.173Z,98736.53
2023-03-12T01:11:04.774Z,98734.59
2023-03-12T01:13:33.451Z,98733.13
2023-03-12T01:16:01.938Z,98738.91
2023-03-12T01:18:30.199Z,98735.63
2023-03-12T01:21:00.549Z,98728.44
2023-03-12T01:23:30.584Z,98728.53
2023-03-12T01:25:59.627Z,98731.09
2023-03-12T01:28:28.468Z,98727.38
2023-03-12T01:30:56.705Z,98721.44
2023-03-12T01:33:24.847Z,98727.38
2023-03-12T01:35:53.432Z,98725.84
2023-03-12T01:38:22.039Z,98728.34
2023-03-12T01:40:53.198Z,98724.72
2023-03-12T01:43:33.300Z,98721.22
2023-03-12T01:46:07.230Z,98721.22
2023-03-12T01:48:43.307Z,98719.75
2023-03-12T01:51:15.119Z,98718.78
2023-03-12T01:53:47.123Z,98723.94
2023-03-12T01:56:18.983Z,98723.31
2023-03-12T01:58:51.210Z,98720.69
2023-03-12T02:01:21.191Z,98708.72
2023-03-12T02:03:53.523Z,98712.41
2023-03-12T02:06:27.245Z,98706.63
2023-03-12T02:08:57.352Z,98700.66
2023-03-12T02:11:27.282Z,98708.06
2023-03-12T02:13:58.722Z,98703.84
2023-03-12T02:16:28.093Z,98712.38
2023-03-12T02:18:59.110Z,98710.66
2023-03-12T02:21:30.782Z,98702.63
2023-03-12T02:24:05.258Z,98706.66
2023-03-12T02:26:36.416Z,98702.78
2023-03-12T02:29:05.619Z,98709.50
2023-03-12T02:31:40.231Z,98708.56
2023-03-12T02:34:08.816Z,98706.34
2023-03-12T02:36:36.968Z,98706.13
2023-03-12T02:39:06.982Z,98703.84
2023-03-12T02:41:39.099Z,98696.09
2023-03-12T02:44:11.595Z,98704.25
2023-03-12T02:46:45.214Z,98702.31
2023-03-12T02:49:14.257Z,98703.97
2023-03-12T02:51:44.362Z,98696.94
2023-03-12T02:54:14.431Z,98689.19
2023-03-12T02:56:44.773Z,98694.25
2023-03-12T02:59:14.919Z,98688.72
2023-03-12T03:01:44.004Z,98687.19
2023-03-12T03:04:13.342Z,98693.03
2023-03-12T03:06:44.037Z,98683.09
2023-03-12T03:09:12.640Z,98683.16
2023-03-12T03:11:41.512Z,98681.19
2023-03-12T03:14:11.237Z,98683.72
2023-03-12T03:16:39.514Z,98685.44
2023-03-12T03:19:08.667Z,98680.47
2023-03-12T03:21:37.085Z,98680.47
2023-03-12T03:24:06.437Z,98682.94
2023-03-12T03:26:34.820Z,98677.03
2023-03-12T03:29:05.994Z,98678.47
2023-03-12T03:31:36.204Z,98679.31
2023-03-12T03:34:04.430Z,98675.66
2023-03-12T03:36:32.919Z,98682.50
2023-03-12T03:39:01.490Z,98687.53
2023-03-12T03:41:29.614Z,98684.03
2023-03-12T03:43:59.964Z,98676.44
2023-03-12T03:46:30.016Z,98673.81
2023-03-12T03:49:00.580Z,98677.03
2023-03-12T03:51:29.217Z,98675.25
2023-03-12T03:53:58.637Z,98673.81
2023-03-12T03:56:27.399Z,98675.53
2023-03-12T03:58:55.751Z,98666.00
2023-03-12T04:01:23.920Z,98679.22
2023-03-12T04:03:53.178Z,98678.09
2023-03-12T04:06:22.853Z,98676.28
2023-03-12T04:08:51.018Z,98677.19
2023-03-12T04:11:21.862Z,98680.72
2023-03-12T04:13:51.281Z,98687.75
2023-03-12T04:16:20.249Z,98689.97
2023-03-12T04:18:48.899Z,98684.53
2023-03-12T04:21:18.626Z,98679.34
2023-03-12T04:23:48.320Z,98678.59
2023-03-12T04:26:17.582Z,98685.38
2023-03-12T04:28:46.396Z,98681.09
2023-03-12T04:31:15.273Z,98678.16
2023-03-12T04:33:46.000Z,98668.06
2023-03-12T04:36:16.547Z,98654.88
2023-03-12T04:38:44.654Z,98656.56
2023-03-12T04:41:16.389Z,98651.59
2023-03-12T04:43:44.775Z,98657.81
2023-03-12T04:46:13.030Z,98666.31
2023-03-12T04:48:42.814Z,98667.19
2023-03-12T04:51:11.112Z,98650.47
2023-03-12T04:53:40.681Z,98648.88
2023-03-12T04:56:09.630Z,98643.38
2023-03-12T04:58:39.663Z,98635.56
2023-03-12T05:01:08.141Z,98638.84
2023-03-12T05:03:40.009Z,98643.81
2023-03-12T05:06:09.499Z,98640.91
2023-03-12T05:08:37.804Z,98627.06
2023-03-12T05:11:06.165Z,98622.94
2023-03-12T05:13:34.380Z,98611.59
2023-03-12T05:16:04.466Z,98624.34
2023-03-12T05:18:33.455Z,98625.13
2023-03-12T05:21:03.025Z,98617.78
2023-03-12T05:23:32.682Z,98616.91
2023-03-12T05:26:01.429Z,98619.72
2023-03-12T05:28:30.337Z,98620.56
2023-03-12T05:30:59.746Z,98615.59
2023-03-12T05:33:30.249Z,98617.38
2023-03-12T05:35:58.693Z,98617.94
2023-03-12T05:38:26.920Z,98607.28
2023-03-12T05:40:57.116Z,98611.00
2023-03-12T05:43:25.451Z,98615.47
2023-03-12T05:45:54.584Z,98622.09
2023-03-12T05:48:23.271Z,98622.03
2023-03-12T05:50:53.513Z,98623.84
2023-03-12T05:53:21.830Z,98620.69
2023-03-12T05:55:50.109Z,98619.88
2023-03-12T05:58:18.518Z,98630.41
2023-03-12T06:00:47.030Z,98630.03
2023-03-12T06:03:16.793Z,98634.31
2023-03-12T06:05:46.083Z,98623.06
2023-03-12T06:08:16.137Z,98621.97
2023-03-12T06:10:44.306Z,98623.72
2023-03-12T06:13:12.703Z,98627.69
2023-03-12T06:15:40.983Z,98625.13
2023-03-12T06:18:09.222Z,98624.91
2023-03-12T06:20:37.577Z,98612.19
2023-03-12T06:23:05.850Z,98604.06
2023-03-12T06:25:37.816Z,98602.06
2023-03-12T06:28:07.224Z,98612.00
2023-03-12T06:30:35.397Z,98601.28
2023-03-12T06:33:07.408Z,98606.59
2023-03-12T06:35:36.682Z,98608.06
2023-03-12T06:38:07.722Z,98602.38
2023-03-12T06:40:37.388Z,98592.78
2023-03-12T06:43:05.733Z,98588.44
2023-03-12T06:45:34.204Z,98587.31
2023-03-12T06:48:05.922Z,98604.72
2023-03-12T06:50:34.315Z,98605.56
2023-03-12T06:53:02.431Z,98596.44
2023-03-12T06:55:31.093Z,98590.25
2023-03-12T06:58:01.077Z,98586.41
2023-03-12T07:00:32.516Z,98571.75
2023-03-12T07:03:00.927Z,98583.69
2023-03-12T07:05:30.145Z,98579.28
2023-03-12T07:07:58.882Z,98579.28
2023-03-12T07:10:28.296Z,98582.06
2023-03-12T07:12:57.848Z,98585.25
2023-03-12T07:15:31.914Z,98595.31
2023-03-12T07:18:01.895Z,98571.00
2023-03-12T07:20:29.921Z,98566.84
2023-03-12T07:22:58.107Z,98578.81
2023-03-12T07:25:26.295Z,98568.22
2023-03-12T07:27:54.649Z,98562.78
2023-03-12T07:30:23.566Z,98562.13
2023-03-12T07:32:54.941Z,98564.28
2023-03-12T07:35:24.516Z,98563.44
2023-03-12T07:37:54.438Z,98573.56
2023-03-12T07:40:23.292Z,98571.91
2023-03-12T07:42:54.868Z,98572.44
2023-03-12T07:45:23.692Z,98571.47
2023-03-12T07:47:53.491Z,98566.63
2023-03-12T07:50:23.283Z,98565.44
2023-03-12T07:52:51.579Z,98565.72
2023-03-12T07:55:20.161Z,98577.78
2023-03-12T07:57:49.282Z,98571.91
2023-03-12T08:00:18.257Z,98582.25
2023-03-12T08:02:46.886Z,98582.69
2023-03-12T08:05:17.582Z,98589.72
2023-03-12T08:07:46.655Z,98580.44
2023-03-12T08:10:15.315Z,98579.06
2023-03-12T08:12:44.211Z,98579.97
2023-03-12T08:15:13.896Z,98586.31
2023-03-12T08:17:44.144Z,98582.13
2023-03-12T08:20:13.792Z,98582.78
2023-03-12T08:22:44.089Z,98580.63
2023-03-12T08:25:12.585Z,98582.22
2023-03-12T08:27:41.389Z,98587.22
2023-03-12T08:30:12.372Z,98595.94
2023-03-12T08:32:41.376Z,98601.00
2023-03-12T08:35:10.733Z,98605.03
2023-03-12T08:37:39.340Z,98597.59
2023-03-12T08:40:13.576Z,98598.13
2023-03-12T08:42:42.027Z,98598.94
2023-03-12T08:45:11.660Z,98607.34
2023-03-12T08:47:42.006Z,98599.34
2023-03-12T08:50:12.979Z,98589.38
2023-03-12T08:52:41.304Z,98591.91
2023-03-12T08:55:12.993Z,98577.69
2023-03-12T08:57:41.766Z,98572.94
2023-03-12T09:00:15.220Z,98569.44
2023-03-12T09:02:45.219Z,98568.25
2023-03-12T09:05:15.324Z,98564.41
2023-03-12T09:07:44.990Z,98559.53
2023-03-12T09:10:14.925Z,98556.31
2023-03-12T09:12:43.051Z,98559.53
2023-03-12T09:15:12.047Z,98554.50
2023-03-12T09:17:40.554Z,98555.19
2023-03-12T09:20:12.425Z,98558.16
2023-03-12T09:22:40.999Z,98555.59
2023-03-12T09:25:11.146Z,98555.81
2023-03-12T09:27:42.681Z,98562.44
2023-03-12T09:30:14.290Z,98562.34
2023-03-12T09:32:44.204Z,98550.13
2023-03-12T09:35:13.977Z,98547.06
2023-03-12T09:37:42.593Z,98544.19
2023-03-12T09:40:17.899Z,98548.88
2023-03-12T09:42:52.598Z,98547.88
2023-03-12T09:45:25.377Z,98541.25
2023-03-12T09:47:55.816Z,98544.59
2023-03-12T09:50:32.420Z,98531.88
2023-03-12T09:53:05.379Z,98545.94
2023-03-12T09:55:39.074Z,98552.75
2023-03-12T09:58:14.892Z,98553.72
2023-03-12T10:00:43.319Z,98557.06
2023-03-12T10:03:48.552Z,98556.63
2023-03-12T10:06:20.373Z,98562.28
2023-03-12T10:09:04.980Z,98566.03
2023-03-12T10:11:44.472Z,98561.59
2023-03-12T10:14:31.970Z,98574.03
2023-03-12T10:17:11.901Z,98573.19
2023-03-12T10:19:54.925Z,98571.41
2023-03-12T10:22:34.722Z,98576.41
2023-03-12T10:25:16.492Z,98576.63
2023-03-12T10:27:44.886Z,98579.59
2023-03-12T10:30:23.434Z,98573.00
2023-03-12T10:32:57.530Z,98578.91
2023-03-12T10:35:27.300Z,98581.78
2023-03-12T10:37:59.004Z,98581.06
2023-03-12T10:40:30.047Z,98577.34
2023-03-12T10:42:58.228Z,98574.09
2023-03-12T10:45:36.086Z,98578.47
2023-03-12T10:48:09.057Z,98578.22
2023-03-12T10:50:38.833Z,98581.06
2023-03-12T10:53:29.302Z,98589.88
2023-03-12T10:56:07.133Z,98584.63
2023-03-12T10:58:37.747Z,98579.97
2023-03-12T11:01:17.359Z,98582.22
2023-03-12T11:03:48.806Z,98596.69
2023-03-12T11:06:23.480Z,98589.56
2023-03-12T11:09:21.925Z,98600.09
2023-03-12T11:11:51.960Z,98598.97
2023-03-12T11:14:22.384Z,98603.94
2023-03-12T11:16:53.789Z,98606.19
2023-03-12T11:19:30.307Z,98599.09
2023-03-12T11:22:01.108Z,98604.75
2023-03-12T11:24:30.541Z,98601.47
2023-03-12T11:27:04.237Z,98592.66
2023-03-12T11:29:40.429Z,98585.38
2023-03-12T11:32:19.763Z,98577.59
2023-03-12T11:34:51.494Z,98590.28
2023-03-12T11:37:33.057Z,98594.84
2023-03-12T11:40:19.659Z,98587.28
2023-03-12T11:43:04.320Z,98592.59
2023-03-12T11:45:42.361Z,98589.50
2023-03-12T11:48:25.202Z,98591.63
2023-03-12T11:51:07.159Z,98591.94
2023-03-12T11:53:59.462Z,98596.78
2023-03-12T11:56:31.206Z,98599.16
2023-03-12T11:59:15.424Z,98595.63
2023-03-12T12:01:58.903Z,98587.97
2023-03-12T12:05:00.191Z,98591.19
2023-03-12T12:07:45.870Z,98587.91
2023-03-12T12:10:25.965Z,98577.19
2023-03-12T12:13:01.058Z,98579.50
2023-03-12T12:15:38.126Z,98558.69
2023-03-12T12:18:21.849Z,98561.75
2023-03-12T12:20:59.436Z,98560.13
2023-03-12T12:23:42.098Z,98557.84
2023-03-12T12:26:14.453Z,98548.91
2023-03-12T12:29:07.004Z,98567.53
2023-03-12T12:31:42.971Z,98560.28
2023-03-12T12:34:46.793Z,98554.34
2023-03-12T12:40:23.256Z,98556.34
2023-03-12T12:42:58.127Z,98552.44
2023-03-12T12:45:30.882Z,98550.59
2023-03-12T12:48:04.814Z,98560.53
2023-03-12T12:50:40.064Z,98557.31
2023-03-12T12:53:22.787Z,98568.31
2023-03-12T12:56:01.465Z,98562.59
2023-03-12T12:58:49.093Z,98564.00
2023-03-12T13:01:18.900Z,98553.59
2023-03-12T13:03:48.795Z,98551.78
2023-03-12T13:06:17.470Z,98550.47
2023-03-12T13:09:04.418Z,98557.38
2023-03-12T13:11:42.355Z,98560.84
2023-03-12T13:14:18.925Z,98551.81
2023-03-12T13:16:48.203Z,98554.28
2023-03-12T13:19:31.674Z,98538.22
2023-03-12T13:22:12.681Z,98551.06
2023-03-12T13:24:47.006Z,98551.31
2023-03-12T13:27:21.385Z,98551.66
2023-03-12T13:29:56.488Z,98552.06
2023-03-12T13:33:07.312Z,98554.09
2023-03-12T13:35:38.904Z,98550.19
2023-03-12T13:38:14.815Z,98561.38
2023-03-12T13:41:05.687Z,98557.25
2023-03-12T13:43:50.347Z,98561.34
2023-03-12T13:46:47.178Z,98568.38
2023-03-12T13:49:20.374Z,98568.78
2023-03-12T13:52:02.935Z,98558.13
2023-03-12T13:54:35.289Z,98547.09
2023-03-12T13:57:06.998Z,98542.34
2023-03-12T13:59:42.070Z,98547.88
2023-03-12T14:02:21.385Z,98546.19
2023-03-12T14:04:49.929Z,98540.56
2023-03-12T14:07:38.390Z,98529.66
2023-03-12T14:10:19.422Z,98541.91
2023-03-12T14:12:56.543Z,98534.44
2023-03-12T14:15:32.274Z,98539.13
2023-03-12T14:18:04.087Z,98533.97
2023-03-12T14:20:33.096Z,98520.22
2023-03-12T14:23:07.696Z,98522.28
2023-03-12T14:25:41.265Z,98517.63
2023-03-12T14:28:17.826Z,98521.59
2023-03-12T14:30:54.765Z,98519.41
2023-03-12T14:33:24.826Z,98514.03
2023-03-12T14:35:57.842Z,98521.94
2023-03-12T14:38:30.986Z,98516.28
2023-03-12T14:41:05.118Z,98519.19
2023-03-12T14:43:35.097Z,98511.34
2023-03-12T14:46:07.465Z,98510.38
2023-03-12T14:48:37.270Z,98507.25
2023-03-12T14:51:08.239Z,98514.44
2023-03-12T14:53:37.715Z,98501.22
2023-03-12T14:56:10.031Z,98510.56
2023-03-12T14:58:45.425Z,98517.28
2023-03-12T15:01:20.472Z,98504.63
2023-03-12T15:03:52.076Z,98514.63
2023-03-12T15:06:27.791Z,98509.06
2023-03-12T15:08:58.970Z,98511.38
2023-03-12T15:11:30.713Z,98509.06
2023-03-12T15:14:05.979Z,98512.78
2023-03-12T15:16:37.052Z,98508.09
2023-03-12T15:19:06.355Z,98506.03
2023-03-12T15:21:36.337Z,98495.31
2023-03-12T15:24:05.626Z,98484.63
2023-03-12T15:26:38.221Z,98481.09
2023-03-12T15:29:26.389Z,98481.06
2023-03-12T15:31:58.469Z,98485.47
2023-03-12T15:34:33.496Z,98478.25
2023-03-12T15:37:03.342Z,98479.47
2023-03-12T15:39:33.739Z,98476.47
2023-03-12T15:42:08.800Z,98484.59
2023-03-12T15:44:46.555Z,98475.66
2023-03-12T15:47:21.719Z,98479.44
2023-03-12T15:49:53.393Z,98485.41
2023-03-12T15:52:31.654Z,98489.56
2023-03-12T15:55:22.786Z,98479.44
2023-03-12T15:57:52.928Z,98479.88
2023-03-12T16:00:25.517Z,98472.50
2023-03-12T16:02:58.957Z,98478.41
2023-03-12T16:05:33.416Z,98490.16
2023-03-12T16:08:04.324Z,98495.97
2023-03-12T16:10:38.889Z,98492.78
2023-03-12T16:13:07.559Z,98497.00
2023-03-12T16:15:41.545Z,98493.25
2023-03-12T16:18:16.321Z,98495.75
2023-03-12T16:20:45.145Z,98493.13
2023-03-12T16:23:13.936Z,98477.84
2023-03-12T16:25:44.438Z,98476.72
2023-03-12T16:28:15.455Z,98477.72
2023-03-12T16:30:44.592Z,98482.78
2023-03-12T16:33:17.641Z,98472.78
2023-03-12T16:35:47.538Z,98478.50
2023-03-12T16:38:16.665Z,98474.75
2023-03-12T16:40:48.261Z,98484.50
2023-03-12T16:43:20.831Z,98480.28
2023-03-12T16:45:51.204Z,98482.81
2023-03-12T16:48:24.666Z,98493.00
2023-03-12T16:50:57.875Z,98498.84
2023-03-12T16:53:27.260Z,98488.75
2023-03-12T16:55:57.648Z,98484.91
2023-03-12T16:58:28.114Z,98495.19
2023-03-12T17:00:58.289Z,98497.22
2023-03-12T17:03:36.185Z,98503.47
2023-03-12T17:06:07.523Z,98496.59
2023-03-12T17:08:36.989Z,98500.59
2023-03-12T17:11:16.557Z,98500.03
2023-03-12T17:13:46.363Z,98501.63
2023-03-12T17:16:15.424Z,98505.50
2023-03-12T17:18:45.210Z,98504.47
2023-03-12T17:21:14.704Z,98512.56
2023-03-12T17:23:43.567Z,98510.66
2023-03-12T17:26:12.662Z,98525.16
2023-03-12T17:28:43.602Z,98521.09
2023-03-12T17:31:13.818Z,98521.94
2023-03-12T17:33:45.278Z,98517.94
2023-03-12T17:36:15.278Z,98522.59
2023-03-12T17:38:44.461Z,98517.72
2023-03-12T17:41:26.031Z,98525.81
2023-03-12T17:44:02.364Z,98513.75
2023-03-12T17:46:31.714Z,98515.19
2023-03-12T17:49:01.374Z,98514.94
2023-03-12T17:51:31.172Z,98512.50
2023-03-12T17:53:59.366Z,98523.13
2023-03-12T17:56:27.701Z,98532.88
2023-03-12T17:58:56.340Z,98538.44
2023-03-12T18:01:24.658Z,98537.94
2023-03-12T18:03:53.134Z,98543.00
2023-03-12T18:06:21.582Z,98546.34
2023-03-12T18:08:51.924Z,98543.41
2023-03-12T18:11:20.548Z,98542.94
2023-03-12T18:13:49.637Z,98538.06
2023-03-12T18:16:18.443Z,98542.22
2023-03-12T18:18:47.104Z,98551.16
2023-03-12T18:21:15.195Z,98538.19
2023-03-12T18:23:46.092Z,98536.72
2023-03-12T18:26:18.261Z,98533.63
2023-03-12T18:28:46.926Z,98538.03
2023-03-12T18:31:15.400Z,98538.78
2023-03-12T18:33:43.852Z,98536.81
2023-03-12T18:36:12.316Z,98525.88
2023-03-12T18:38:40.828Z,98519.06
2023-03-12T18:41:12.453Z,98519.91
2023-03-12T18:43:46.025Z,98514.31
2023-03-12T18:46:14.398Z,98510.66
2023-03-12T18:48:49.588Z,98515.16
2023-03-12T18:51:17.891Z,98515.63
2023-03-12T18:53:46.945Z,98518.84
2023-03-12T18:56:15.529Z,98525.53
2023-03-12T18:58:46.093Z,98523.75
2023-03-12T19:01:14.578Z,98532.41
2023-03-12T19:03:43.086Z,98536.41
2023-03-12T19:06:14.365Z,98535.81
2023-03-12T19:08:43.493Z,98530.66
2023-03-12T19:11:15.662Z,98527.72
2023-03-12T19:13:52.333Z,98533.94
2023-03-12T19:16:22.175Z,98535.47
2023-03-12T19:18:52.305Z,98534.78
2023-03-12T19:21:21.199Z,98529.69
2023-03-12T19:23:51.045Z,98524.31
2023-03-12T19:26:19.448Z,98531.81
2023-03-12T19:28:49.338Z,98531.81
2023-03-12T19:31:17.378Z,98520.75
2023-03-12T19:33:45.861Z,98527.81
2023-03-12T19:36:14.550Z,98537.50
2023-03-12T19:38:44.118Z,98531.28
2023-03-12T19:41:12.543Z,98531.66
2023-03-12T19:43:42.349Z,98533.19
2023-03-12T19:46:11.978Z,98524.59
2023-03-12T19:48:40.200Z,98526.41
2023-03-12T19:51:09.561Z,98534.88
2023-03-12T19:53:38.547Z,98536.50
2023-03-12T19:56:07.590Z,98534.97
2023-03-12T19:58:35.740Z,98534.88
2023-03-12T20:01:07.979Z,98525.44
2023-03-12T20:03:43.417Z,98528.09
2023-03-12T20:06:14.221Z,98527.25
2023-03-12T20:08:42.773Z,98524.75
2023-03-12T20:11:12.109Z,98528.69
2023-03-12T20:13:40.458Z,98515.22
2023-03-12T20:16:11.739Z,98507.91
2023-03-12T20:18:42.313Z,98497.19
2023-03-12T20:21:11.119Z,98500.94
2023-03-12T20:23:39.419Z,98493.09
2023-03-12T20:26:08.714Z,98490.78
2023-03-12T20:28:37.282Z,98494.47
2023-03-12T20:31:10.417Z,98489.63
2023-03-12T20:33:39.144Z,98474.13
2023-03-12T20:36:11.732Z,98472.56
2023-03-12T20:38:42.219Z,98471.16
2023-03-12T20:41:21.881Z,98474.66
2023-03-12T20:43:51.063Z,98478.06
2023-03-12T20:46:20.039Z,98470.97
2023-03-12T20:48:48.282Z,98479.19
2023-03-12T20:51:18.700Z,98480.47
2023-03-12T20:53:47.215Z,98488.69
2023-03-12T20:56:16.489Z,98481.31
2023-03-12T20:58:45.678Z,98476.31
2023-03-12T21:01:14.896Z,98467.13
2023-03-12T21:03:45.787Z,98476.09
2023-03-12T21:06:13.916Z,98473.78
2023-03-12T21:08:44.018Z,98485.81
2023-03-12T21:11:12.953Z,98482.59
2023-03-12T21:13:41.406Z,98470.78
2023-03-12T21:16:11.248Z,98482.75
2023-03-12T21:18:39.612Z,98467.09
2023-03-12T21:21:09.981Z,98474.72
2023-03-12T21:23:39.022Z,98473.00
2023-03-12T21:26:09.883Z,98464.59
2023-03-12T21:28:38.492Z,98463.22
2023-03-12T21:31:09.021Z,98472.16
2023-03-12T21:33:37.460Z,98471.25
2023-03-12T21:36:07.230Z,98458.66
2023-03-12T21:38:36.684Z,98457.03
2023-03-12T21:41:11.359Z,98453.28
2023-03-12T21:43:40.627Z,98447.72
2023-03-12T21:46:11.123Z,98452.16
2023-03-12T21:48:40.047Z,98448.00
2023-03-12T21:51:10.294Z,98445.69
2023-03-12T21:53:39.196Z,98439.22
2023-03-12T21:56:10.767Z,98432.44
2023-03-12T21:58:39.186Z,98419.47
2023-03-12T22:01:11.235Z,98433.25
2023-03-12T22:03:42.834Z,98426.59
2023-03-12T22:06:11.950Z,98417.50
2023-03-12T22:08:40.658Z,98410.72
2023-03-12T22:11:11.203Z,98415.56
2023-03-12T22:13:39.785Z,98409.00
2023-03-12T22:16:10.046Z,98408.56
2023-03-12T22:18:41.657Z,98399.50
2023-03-12T22:21:17.349Z,98391.06
2023-03-12T22:23:48.350Z,98401.94
2023-03-12T22:26:19.006Z,98392.34
2023-03-12T22:28:50.920Z,98388.38
2023-03-12T22:31:20.547Z,98393.03
2023-03-12T22:33:49.640Z,98381.53
2023-03-12T22:36:19.261Z,98388.88
2023-03-12T22:38:48.367Z,98388.97
2023-03-12T22:41:21.613Z,98386.25
2023-03-12T22:43:51.397Z,98393.03
2023-03-12T22:46:21.090Z,98389.03
2023-03-12T22:48:53.765Z,98385.50
2023-03-12T22:51:21.931Z,98385.03
2023-03-12T22:53:51.175Z,98381.28
2023-03-12T22:56:21.751Z,98376.13
2023-03-12T22:58:50.315Z,98373.84
2023-03-12T23:01:21.989Z,98374.50
2023-03-12T23:03:51.177Z,98374.81
2023-03-12T23:06:24.395Z,98380.34
2023-03-12T23:08:55.182Z,98369.44
2023-03-12T23:11:26.584Z,98371.22
2023-03-12T23:13:55.869Z,98372.72
2023-03-12T23:16:26.383Z,98373.22
2023-03-12T23:18:56.461Z,98370.28
2023-03-12T23:21:26.074Z,98363.38
2023-03-12T23:23:54.589Z,98361.50
2023-03-12T23:26:26.722Z,98354.94
2023-03-12T23:28:55.789Z,98352.09
2023-03-12T23:31:27.879Z,98345.88
2023-03-12T23:33:56.406Z,98346.94
2023-03-12T23:36:26.365Z,98354.41
2023-03-12T23:38:54.970Z,98350.16
2023-03-12T23:41:28.667Z,98341.72
2023-03-12T23:43:59.400Z,98336.75
2023-03-12T23:46:29.102Z,98333.28
2023-03-12T23:48:58.115Z,98333.09
2023-03-12T23:51:29.266Z,98336.78
2023-03-12T23:53:59.862Z,98327.50
2023-03-12T23:56:34.403Z,98324.53
2023-03-12T23:59:03.186Z,98322.13
